sensor_id;sensor_type;location;lat;lon;timestamp;P1;durP1;ratioP1;P2;durP2;ratioP2
5630;SDS011;2837;50.990;7.124;2024-03-07T06:02:09;172.20;;;15.45;;
5630;SDS011;2837;50.990;7.124;2024-03-07T06:04:38;169.15;;;14.85;;
5630;SDS011;2837;50.990;7.124;2024-03-07T06:07:04;173.27;;;15.75;;
5630;SDS011;2837;50.990;7.124;2024-03-07T06:09:30;171.50;;;15.82;;
5630;SDS011;2837;50.990;7.124;2024-03-07T06:11:56;171.20;;;15.80;;
5630;SDS011;2837;50.990;7.124;2024-03-07T06:14:22;170.55;;;16.40;;
5630;SDS011;2837;50.990;7.124;2024-03-07T06:16:49;172.60;;;16.30;;
5630;SDS011;2837;50.990;7.124;2024-03-07T06:19:14;170.63;;;15.63;;
5630;SDS011;2837;50.990;7.124;2024-03-07T06:21:41;172.70;;;16.02;;
5630;SDS011;2837;50.990;7.124;2024-03-07T06:24:07;171.10;;;16.07;;
5630;SDS011;2837;50.990;7.124;2024-03-07T06:26:35;170.32;;;15.18;;
5630;SDS011;2837;50.990;7.124;2024-03-07T06:29:05;169.20;;;14.55;;
5630;SDS011;2837;50.990;7.124;2024-03-07T06:31:31;170.68;;;15.13;;
5630;SDS011;2837;50.990;7.124;2024-03-07T06:33:57;171.77;;;15.80;;
5630;SDS011;2837;50.990;7.124;2024-03-07T06:36:23;171.60;;;15.90;;
5630;SDS011;2837;50.990;7.124;2024-03-07T06:38:53;171.75;;;16.20;;
5630;SDS011;2837;50.990;7.124;2024-03-07T06:41:19;171.50;;;16.07;;
5630;SDS011;2837;50.990;7.124;2024-03-07T06:43:45;171.48;;;15.48;;
5630;SDS011;2837;50.990;7.124;2024-03-07T06:46:11;172.85;;;16.55;;
5630;SDS011;2837;50.990;7.124;2024-03-07T06:48:40;172.05;;;15.95;;
5630;SDS011;2837;50.990;7.124;2024-03-07T06:51:06;172.52;;;16.05;;
5630;SDS011;2837;50.990;7.124;2024-03-07T06:53:32;173.17;;;16.13;;
5630;SDS011;2837;50.990;7.124;2024-03-07T06:55:58;171.90;;;16.37;;
5630;SDS011;2837;50.990;7.124;2024-03-07T06:58:24;170.20;;;15.98;;
5630;SDS011;2837;50.990;7.124;2024-03-07T07:00:51;172.88;;;15.80;;
5630;SDS011;2837;50.990;7.124;2024-03-07T07:03:19;170.90;;;15.30;;
5630;SDS011;2837;50.990;7.124;2024-03-07T07:05:47;172.35;;;15.90;;
5630;SDS011;2837;50.990;7.124;2024-03-07T07:08:13;171.30;;;16.67;;
5630;SDS011;2837;50.990;7.124;2024-03-07T07:10:39;171.23;;;16.00;;
5630;SDS011;2837;50.990;7.124;2024-03-07T07:13:08;173.63;;;15.43;;
5630;SDS011;2837;50.990;7.124;2024-03-07T07:15:35;171.35;;;15.55;;
5630;SDS011;2837;50.990;7.124;2024-03-07T07:18:02;171.10;;;16.40;;
5630;SDS011;2837;50.990;7.124;2024-03-07T07:20:29;171.57;;;16.08;;
5630;SDS011;2837;50.990;7.124;2024-03-07T07:22:55;170.90;;;15.80;;
5630;SDS011;2837;50.990;7.124;2024-03-07T07:25:23;170.07;;;15.88;;
5630;SDS011;2837;50.990;7.124;2024-03-07T07:27:49;169.85;;;15.40;;
5630;SDS011;2837;50.990;7.124;2024-03-07T07:30:16;169.88;;;15.23;;
5630;SDS011;2837;50.990;7.124;2024-03-07T07:32:43;173.73;;;16.20;;
5630;SDS011;2837;50.990;7.124;2024-03-07T07:35:09;168.65;;;15.13;;
5630;SDS011;2837;50.990;7.124;2024-03-07T07:37:44;171.33;;;15.90;;
5630;SDS011;2837;50.990;7.124;2024-03-07T07:40:11;172.15;;;15.38;;
5630;SDS011;2837;50.990;7.124;2024-03-07T07:42:39;170.43;;;15.77;;
5630;SDS011;2837;50.990;7.124;2024-03-07T07:45:07;169.57;;;15.35;;
5630;SDS011;2837;50.990;7.124;2024-03-07T07:47:36;170.43;;;15.70;;
5630;SDS011;2837;50.990;7.124;2024-03-07T07:50:02;172.93;;;15.03;;
5630;SDS011;2837;50.990;7.124;2024-03-07T07:52:32;168.80;;;14.45;;
5630;SDS011;2837;50.990;7.124;2024-03-07T07:54:57;171.18;;;14.80;;
5630;SDS011;2837;50.990;7.124;2024-03-07T07:57:24;168.07;;;14.13;;
5630;SDS011;2837;50.990;7.124;2024-03-07T07:59:50;170.13;;;15.60;;
5630;SDS011;2837;50.990;7.124;2024-03-07T08:02:16;168.90;;;14.55;;
5630;SDS011;2837;50.990;7.124;2024-03-07T08:04:42;169.60;;;15.07;;
5630;SDS011;2837;50.990;7.124;2024-03-07T08:07:08;171.30;;;14.60;;
5630;SDS011;2837;50.990;7.124;2024-03-07T08:09:34;170.13;;;15.52;;
5630;SDS011;2837;50.990;7.124;2024-03-07T08:12:00;171.52;;;15.30;;
5630;SDS011;2837;50.990;7.124;2024-03-07T08:14:27;168.30;;;14.70;;
5630;SDS011;2837;50.990;7.124;2024-03-07T08:16:54;168.80;;;14.90;;
5630;SDS011;2837;50.990;7.124;2024-03-07T08:19:21;171.23;;;14.00;;
5630;SDS011;2837;50.990;7.124;2024-03-07T08:21:48;170.63;;;15.02;;
5630;SDS011;2837;50.990;7.124;2024-03-07T08:24:14;169.35;;;14.75;;
5630;SDS011;2837;50.990;7.124;2024-03-07T08:26:40;171.07;;;15.40;;
5630;SDS011;2837;50.990;7.124;2024-03-07T08:29:09;168.57;;;14.30;;
5630;SDS011;2837;50.990;7.124;2024-03-07T08:31:36;169.70;;;14.30;;
5630;SDS011;2837;50.990;7.124;2024-03-07T08:34:03;168.35;;;14.10;;
5630;SDS011;2837;50.990;7.124;2024-03-07T08:36:29;168.45;;;14.20;;
5630;SDS011;2837;50.990;7.124;2024-03-07T08:38:55;168.40;;;14.35;;
5630;SDS011;2837;50.990;7.124;2024-03-07T08:41:21;171.70;;;15.27;;
5630;SDS011;2837;50.990;7.124;2024-03-07T08:43:47;167.68;;;13.98;;
5630;SDS011;2837;50.990;7.124;2024-03-07T08:46:14;170.43;;;14.80;;
5630;SDS011;2837;50.990;7.124;2024-03-07T08:48:40;168.85;;;14.93;;
5630;SDS011;2837;50.990;7.124;2024-03-07T08:51:06;167.82;;;14.20;;
5630;SDS011;2837;50.990;7.124;2024-03-07T08:53:32;167.40;;;14.25;;
5630;SDS011;2837;50.990;7.124;2024-03-07T08:55:58;169.05;;;13.95;;
5630;SDS011;2837;50.990;7.124;2024-03-07T08:58:26;172.50;;;14.40;;
5630;SDS011;2837;50.990;7.124;2024-03-07T09:00:53;169.20;;;14.40;;
5630;SDS011;2837;50.990;7.124;2024-03-07T09:03:18;166.47;;;14.00;;
5630;SDS011;2837;50.990;7.124;2024-03-07T09:05:46;169.77;;;14.40;;
5630;SDS011;2837;50.990;7.124;2024-03-07T09:08:12;169.35;;;13.63;;
5630;SDS011;2837;50.990;7.124;2024-03-07T09:10:38;168.55;;;13.60;;
5630;SDS011;2837;50.990;7.124;2024-03-07T09:13:06;167.85;;;14.30;;
5630;SDS011;2837;50.990;7.124;2024-03-07T09:15:32;167.10;;;14.40;;
5630;SDS011;2837;50.990;7.124;2024-03-07T09:17:58;167.90;;;15.00;;
5630;SDS011;2837;50.990;7.124;2024-03-07T09:20:26;167.60;;;14.10;;
5630;SDS011;2837;50.990;7.124;2024-03-07T09:22:52;169.07;;;15.20;;
5630;SDS011;2837;50.990;7.124;2024-03-07T09:25:19;168.63;;;14.40;;
5630;SDS011;2837;50.990;7.124;2024-03-07T09:27:45;167.93;;;14.25;;
5630;SDS011;2837;50.990;7.124;2024-03-07T09:30:11;166.70;;;13.93;;
5630;SDS011;2837;50.990;7.124;2024-03-07T09:32:39;167.70;;;13.63;;
5630;SDS011;2837;50.990;7.124;2024-03-07T09:35:06;169.40;;;14.85;;
5630;SDS011;2837;50.990;7.124;2024-03-07T09:37:32;166.90;;;14.32;;
5630;SDS011;2837;50.990;7.124;2024-03-07T09:39:58;166.38;;;13.73;;
5630;SDS011;2837;50.990;7.124;2024-03-07T09:42:25;168.85;;;14.40;;
5630;SDS011;2837;50.990;7.124;2024-03-07T09:44:52;166.75;;;13.85;;
5630;SDS011;2837;50.990;7.124;2024-03-07T09:47:19;167.13;;;14.23;;
5630;SDS011;2837;50.990;7.124;2024-03-07T09:49:46;167.07;;;13.90;;
5630;SDS011;2837;50.990;7.124;2024-03-07T09:52:12;172.80;;;15.20;;
5630;SDS011;2837;50.990;7.124;2024-03-07T09:54:40;168.55;;;14.90;;
5630;SDS011;2837;50.990;7.124;2024-03-07T09:57:06;168.27;;;14.48;;
5630;SDS011;2837;50.990;7.124;2024-03-07T09:59:34;167.77;;;14.93;;
5630;SDS011;2837;50.990;7.124;2024-03-07T10:02:01;167.25;;;14.55;;
5630;SDS011;2837;50.990;7.124;2024-03-07T10:04:31;167.52;;;14.45;;
5630;SDS011;2837;50.990;7.124;2024-03-07T10:07:03;166.55;;;14.10;;
5630;SDS011;2837;50.990;7.124;2024-03-07T10:09:29;168.93;;;14.73;;
5630;SDS011;2837;50.990;7.124;2024-03-07T10:11:57;166.00;;;13.48;;
5630;SDS011;2837;50.990;7.124;2024-03-07T10:14:24;165.55;;;14.20;;
5630;SDS011;2837;50.990;7.124;2024-03-07T10:16:50;166.48;;;14.30;;
5630;SDS011;2837;50.990;7.124;2024-03-07T10:19:16;166.18;;;14.55;;
5630;SDS011;2837;50.990;7.124;2024-03-07T10:21:42;166.98;;;13.82;;
5630;SDS011;2837;50.990;7.124;2024-03-07T10:24:08;167.80;;;14.40;;
5630;SDS011;2837;50.990;7.124;2024-03-07T10:26:36;166.82;;;14.82;;
5630;SDS011;2837;50.990;7.124;2024-03-07T10:29:03;167.23;;;15.00;;
5630;SDS011;2837;50.990;7.124;2024-03-07T10:31:29;166.32;;;14.23;;
5630;SDS011;2837;50.990;7.124;2024-03-07T10:34:03;167.10;;;14.00;;
5630;SDS011;2837;50.990;7.124;2024-03-07T10:36:29;165.75;;;13.77;;
5630;SDS011;2837;50.990;7.124;2024-03-07T10:39:01;167.82;;;14.45;;
5630;SDS011;2837;50.990;7.124;2024-03-07T10:41:42;168.15;;;14.70;;
5630;SDS011;2837;50.990;7.124;2024-03-07T10:44:08;165.30;;;14.00;;
5630;SDS011;2837;50.990;7.124;2024-03-07T10:46:38;169.57;;;15.05;;
5630;SDS011;2837;50.990;7.124;2024-03-07T10:49:05;167.43;;;14.27;;
5630;SDS011;2837;50.990;7.124;2024-03-07T10:51:46;164.60;;;13.90;;
5630;SDS011;2837;50.990;7.124;2024-03-07T10:54:15;165.70;;;13.63;;
5630;SDS011;2837;50.990;7.124;2024-03-07T10:56:53;167.63;;;13.98;;
5630;SDS011;2837;50.990;7.124;2024-03-07T10:59:26;166.27;;;13.75;;
5630;SDS011;2837;50.990;7.124;2024-03-07T11:01:59;167.30;;;14.85;;
5630;SDS011;2837;50.990;7.124;2024-03-07T11:04:29;167.75;;;14.27;;
5630;SDS011;2837;50.990;7.124;2024-03-07T11:06:55;167.75;;;14.75;;
5630;SDS011;2837;50.990;7.124;2024-03-07T11:09:23;165.18;;;13.77;;
5630;SDS011;2837;50.990;7.124;2024-03-07T11:11:54;168.00;;;13.63;;
5630;SDS011;2837;50.990;7.124;2024-03-07T11:14:20;166.95;;;14.77;;
5630;SDS011;2837;50.990;7.124;2024-03-07T11:16:46;165.40;;;13.90;;
5630;SDS011;2837;50.990;7.124;2024-03-07T11:19:19;164.27;;;13.15;;
5630;SDS011;2837;50.990;7.124;2024-03-07T11:21:49;165.52;;;13.10;;
5630;SDS011;2837;50.990;7.124;2024-03-07T11:24:25;162.13;;;12.27;;
5630;SDS011;2837;50.990;7.124;2024-03-07T11:26:54;163.68;;;12.98;;
5630;SDS011;2837;50.990;7.124;2024-03-07T11:32:07;164.13;;;13.68;;
5630;SDS011;2837;50.990;7.124;2024-03-07T11:34:38;162.43;;;12.88;;
5630;SDS011;2837;50.990;7.124;2024-03-07T11:37:09;163.40;;;13.50;;
5630;SDS011;2837;50.990;7.124;2024-03-07T11:39:46;164.33;;;13.10;;
5630;SDS011;2837;50.990;7.124;2024-03-07T11:42:19;164.02;;;12.40;;
5630;SDS011;2837;50.990;7.124;2024-03-07T11:44:46;162.20;;;12.40;;
5630;SDS011;2837;50.990;7.124;2024-03-07T11:47:15;162.90;;;13.27;;
5630;SDS011;2837;50.990;7.124;2024-03-07T11:49:43;162.25;;;12.52;;
5630;SDS011;2837;50.990;7.124;2024-03-07T11:52:08;160.85;;;11.27;;
5630;SDS011;2837;50.990;7.124;2024-03-07T11:54:38;162.23;;;12.63;;
5630;SDS011;2837;50.990;7.124;2024-03-07T11:57:11;162.07;;;12.67;;
5630;SDS011;2837;50.990;7.124;2024-03-07T11:59:41;162.37;;;12.83;;
5630;SDS011;2837;50.990;7.124;2024-03-07T12:02:13;161.98;;;12.88;;
5630;SDS011;2837;50.990;7.124;2024-03-07T12:04:40;161.20;;;12.50;;
5630;SDS011;2837;50.990;7.124;2024-03-07T12:07:06;161.68;;;13.00;;
5630;SDS011;2837;50.990;7.124;2024-03-07T12:09:35;162.20;;;12.40;;
5630;SDS011;2837;50.990;7.124;2024-03-07T12:12:02;162.50;;;12.80;;
5630;SDS011;2837;50.990;7.124;2024-03-07T12:14:28;161.85;;;12.43;;
5630;SDS011;2837;50.990;7.124;2024-03-07T12:16:54;162.60;;;12.55;;
5630;SDS011;2837;50.990;7.124;2024-03-07T12:19:21;160.63;;;12.30;;
5630;SDS011;2837;50.990;7.124;2024-03-07T12:21:47;162.38;;;13.13;;
5630;SDS011;2837;50.990;7.124;2024-03-07T12:24:14;161.90;;;13.07;;
5630;SDS011;2837;50.990;7.124;2024-03-07T12:26:40;162.63;;;12.23;;
5630;SDS011;2837;50.990;7.124;2024-03-07T12:29:10;161.10;;;12.30;;
5630;SDS011;2837;50.990;7.124;2024-03-07T12:31:39;160.40;;;12.27;;
5630;SDS011;2837;50.990;7.124;2024-03-07T12:34:07;160.95;;;12.90;;
5630;SDS011;2837;50.990;7.124;2024-03-07T12:36:35;161.77;;;12.85;;
5630;SDS011;2837;50.990;7.124;2024-03-07T12:41:55;160.40;;;12.50;;
5630;SDS011;2837;50.990;7.124;2024-03-07T12:44:21;161.73;;;13.57;;
5630;SDS011;2837;50.990;7.124;2024-03-07T12:46:47;160.80;;;13.00;;
5630;SDS011;2837;50.990;7.124;2024-03-07T12:49:14;162.15;;;13.02;;
5630;SDS011;2837;50.990;7.124;2024-03-07T12:51:41;160.87;;;12.90;;
5630;SDS011;2837;50.990;7.124;2024-03-07T12:54:07;161.70;;;13.50;;
5630;SDS011;2837;50.990;7.124;2024-03-07T12:56:36;162.23;;;13.30;;
5630;SDS011;2837;50.990;7.124;2024-03-07T12:59:05;159.13;;;11.90;;
5630;SDS011;2837;50.990;7.124;2024-03-07T13:01:37;159.70;;;13.00;;
5630;SDS011;2837;50.990;7.124;2024-03-07T13:04:07;159.52;;;12.00;;
5630;SDS011;2837;50.990;7.124;2024-03-07T13:06:35;160.80;;;12.37;;
5630;SDS011;2837;50.990;7.124;2024-03-07T13:09:01;161.77;;;12.77;;
5630;SDS011;2837;50.990;7.124;2024-03-07T13:11:28;160.60;;;12.80;;
5630;SDS011;2837;50.990;7.124;2024-03-07T13:13:57;160.98;;;13.00;;
5630;SDS011;2837;50.990;7.124;2024-03-07T13:16:24;160.55;;;13.13;;
5630;SDS011;2837;50.990;7.124;2024-03-07T13:18:52;160.40;;;12.68;;
5630;SDS011;2837;50.990;7.124;2024-03-07T13:21:19;160.07;;;11.43;;
5630;SDS011;2837;50.990;7.124;2024-03-07T13:23:45;162.77;;;13.15;;
5630;SDS011;2837;50.990;7.124;2024-03-07T13:26:11;160.43;;;12.60;;
5630;SDS011;2837;50.990;7.124;2024-03-07T13:28:42;160.32;;;12.70;;
5630;SDS011;2837;50.990;7.124;2024-03-07T13:31:09;160.80;;;12.18;;
5630;SDS011;2837;50.990;7.124;2024-03-07T13:33:42;160.13;;;12.52;;
5630;SDS011;2837;50.990;7.124;2024-03-07T13:36:08;161.00;;;12.75;;
5630;SDS011;2837;50.990;7.124;2024-03-07T13:38:33;159.80;;;12.50;;
5630;SDS011;2837;50.990;7.124;2024-03-07T13:40:59;160.50;;;12.48;;
5630;SDS011;2837;50.990;7.124;2024-03-07T13:43:28;160.52;;;12.70;;
5630;SDS011;2837;50.990;7.124;2024-03-07T13:45:54;160.03;;;12.17;;
5630;SDS011;2837;50.990;7.124;2024-03-07T13:48:21;160.15;;;12.40;;
5630;SDS011;2837;50.990;7.124;2024-03-07T13:50:47;159.50;;;11.80;;
5630;SDS011;2837;50.990;7.124;2024-03-07T13:53:20;158.48;;;10.45;;
5630;SDS011;2837;50.990;7.124;2024-03-07T13:58:12;160.48;;;11.93;;
5630;SDS011;2837;50.990;7.124;2024-03-07T14:01:05;159.77;;;12.13;;
5630;SDS011;2837;50.990;7.124;2024-03-07T14:03:55;159.95;;;12.15;;
5630;SDS011;2837;50.990;7.124;2024-03-07T14:11:31;159.85;;;12.20;;
5630;SDS011;2837;50.990;7.124;2024-03-07T14:14:34;160.50;;;12.60;;
5630;SDS011;2837;50.990;7.124;2024-03-07T14:23:40;160.65;;;11.45;;
5630;SDS011;2837;50.990;7.124;2024-03-07T14:31:48;160.50;;;11.25;;
5630;SDS011;2837;50.990;7.124;2024-03-07T14:36:47;160.90;;;12.15;;
5630;SDS011;2837;50.990;7.124;2024-03-07T14:39:20;162.68;;;12.60;;
5630;SDS011;2837;50.990;7.124;2024-03-07T14:41:58;160.00;;;11.95;;
5630;SDS011;2837;50.990;7.124;2024-03-07T14:44:24;158.98;;;11.00;;
5630;SDS011;2837;50.990;7.124;2024-03-07T14:46:55;161.30;;;12.37;;
5630;SDS011;2837;50.990;7.124;2024-03-07T14:49:23;160.40;;;12.00;;
5630;SDS011;2837;50.990;7.124;2024-03-07T14:51:48;161.15;;;11.95;;
5630;SDS011;2837;50.990;7.124;2024-03-07T14:54:15;160.97;;;12.93;;
5630;SDS011;2837;50.990;7.124;2024-03-07T14:56:41;160.95;;;12.73;;
5630;SDS011;2837;50.990;7.124;2024-03-07T14:59:07;160.10;;;12.35;;
5630;SDS011;2837;50.990;7.124;2024-03-07T15:01:33;159.80;;;12.10;;
5630;SDS011;2837;50.990;7.124;2024-03-07T15:04:00;161.80;;;11.73;;
5630;SDS011;2837;50.990;7.124;2024-03-07T15:06:28;160.80;;;12.10;;
5630;SDS011;2837;50.990;7.124;2024-03-07T15:08:56;160.93;;;12.48;;
5630;SDS011;2837;50.990;7.124;2024-03-07T15:11:25;160.60;;;12.18;;
5630;SDS011;2837;50.990;7.124;2024-03-07T15:14:03;160.63;;;13.00;;
5630;SDS011;2837;50.990;7.124;2024-03-07T15:16:35;161.85;;;12.43;;
5630;SDS011;2837;50.990;7.124;2024-03-07T15:19:06;161.07;;;12.35;;
5630;SDS011;2837;50.990;7.124;2024-03-07T15:21:33;160.88;;;12.50;;
5630;SDS011;2837;50.990;7.124;2024-03-07T15:23:59;161.77;;;12.85;;
5630;SDS011;2837;50.990;7.124;2024-03-07T15:26:26;160.57;;;12.02;;
5630;SDS011;2837;50.990;7.124;2024-03-07T15:28:52;162.60;;;11.90;;
5630;SDS011;2837;50.990;7.124;2024-03-07T15:31:20;161.63;;;12.70;;
5630;SDS011;2837;50.990;7.124;2024-03-07T15:33:49;165.35;;;12.40;;
5630;SDS011;2837;50.990;7.124;2024-03-07T15:36:16;162.45;;;12.38;;
5630;SDS011;2837;50.990;7.124;2024-03-07T15:38:43;163.30;;;12.80;;
5630;SDS011;2837;50.990;7.124;2024-03-07T15:41:09;162.27;;;13.20;;
5630;SDS011;2837;50.990;7.124;2024-03-07T15:43:36;162.00;;;12.90;;
5630;SDS011;2837;50.990;7.124;2024-03-07T15:46:02;163.40;;;13.15;;
5630;SDS011;2837;50.990;7.124;2024-03-07T15:48:29;162.90;;;12.95;;
5630;SDS011;2837;50.990;7.124;2024-03-07T15:50:56;162.73;;;12.93;;
5630;SDS011;2837;50.990;7.124;2024-03-07T15:53:22;163.00;;;12.87;;
5630;SDS011;2837;50.990;7.124;2024-03-07T15:55:48;163.10;;;13.17;;
5630;SDS011;2837;50.990;7.124;2024-03-07T15:58:14;162.57;;;13.32;;
5630;SDS011;2837;50.990;7.124;2024-03-07T16:00:42;162.70;;;13.43;;
5630;SDS011;2837;50.990;7.124;2024-03-07T16:03:11;162.00;;;12.93;;
5630;SDS011;2837;50.990;7.124;2024-03-07T16:05:38;163.23;;;12.80;;
5630;SDS011;2837;50.990;7.124;2024-03-07T16:08:05;162.38;;;13.20;;
5630;SDS011;2837;50.990;7.124;2024-03-07T16:10:32;163.35;;;13.02;;
5630;SDS011;2837;50.990;7.124;2024-03-07T16:13:02;161.98;;;12.57;;
5630;SDS011;2837;50.990;7.124;2024-03-07T16:15:31;161.43;;;12.43;;
5630;SDS011;2837;50.990;7.124;2024-03-07T16:17:58;162.57;;;12.30;;
5630;SDS011;2837;50.990;7.124;2024-03-07T16:20:27;163.02;;;12.20;;
5630;SDS011;2837;50.990;7.124;2024-03-07T16:22:57;163.05;;;13.30;;
5630;SDS011;2837;50.990;7.124;2024-03-07T16:25:23;161.98;;;12.80;;
5630;SDS011;2837;50.990;7.124;2024-03-07T16:27:51;162.03;;;11.83;;
5630;SDS011;2837;50.990;7.124;2024-03-07T16:30:19;162.93;;;12.60;;
5630;SDS011;2837;50.990;7.124;2024-03-07T16:32:46;163.43;;;12.20;;
5630;SDS011;2837;50.990;7.124;2024-03-07T16:35:12;161.63;;;11.80;;
5630;SDS011;2837;50.990;7.124;2024-03-07T16:37:41;161.00;;;11.52;;
5630;SDS011;2837;50.990;7.124;2024-03-07T16:40:08;164.83;;;12.33;;
5630;SDS011;2837;50.990;7.124;2024-03-07T16:42:35;161.30;;;11.53;;
5630;SDS011;2837;50.990;7.124;2024-03-07T16:45:12;162.70;;;12.00;;
5630;SDS011;2837;50.990;7.124;2024-03-07T16:47:44;162.90;;;11.32;;
5630;SDS011;2837;50.990;7.124;2024-03-07T16:50:22;163.65;;;13.40;;
5630;SDS011;2837;50.990;7.124;2024-03-07T16:52:54;162.57;;;12.20;;
5630;SDS011;2837;50.990;7.124;2024-03-07T16:55:20;162.60;;;11.90;;
5630;SDS011;2837;50.990;7.124;2024-03-07T16:57:47;161.15;;;10.85;;
5630;SDS011;2837;50.990;7.124;2024-03-07T17:00:16;162.45;;;12.07;;
5630;SDS011;2837;50.990;7.124;2024-03-07T17:02:45;162.40;;;11.40;;
5630;SDS011;2837;50.990;7.124;2024-03-07T17:05:11;162.30;;;11.80;;
5630;SDS011;2837;50.990;7.124;2024-03-07T17:07:40;161.65;;;11.00;;
5630;SDS011;2837;50.990;7.124;2024-03-07T17:10:12;162.85;;;12.13;;
5630;SDS011;2837;50.990;7.124;2024-03-07T17:12:41;162.07;;;11.50;;
5630;SDS011;2837;50.990;7.124;2024-03-07T17:15:09;164.25;;;12.45;;
5630;SDS011;2837;50.990;7.124;2024-03-07T17:17:38;163.32;;;11.38;;
5630;SDS011;2837;50.990;7.124;2024-03-07T17:20:05;163.73;;;12.20;;
5630;SDS011;2837;50.990;7.124;2024-03-07T17:22:31;162.98;;;12.30;;
5630;SDS011;2837;50.990;7.124;2024-03-07T17:24:59;166.13;;;12.60;;
5630;SDS011;2837;50.990;7.124;2024-03-07T17:27:25;165.97;;;12.60;;
5630;SDS011;2837;50.990;7.124;2024-03-07T17:29:51;165.00;;;12.30;;
5630;SDS011;2837;50.990;7.124;2024-03-07T17:32:17;164.40;;;12.03;;
5630;SDS011;2837;50.990;7.124;2024-03-07T17:34:50;164.07;;;12.77;;
5630;SDS011;2837;50.990;7.124;2024-03-07T17:37:16;161.95;;;11.80;;
5630;SDS011;2837;50.990;7.124;2024-03-07T17:39:42;163.60;;;12.33;;
5630;SDS011;2837;50.990;7.124;2024-03-07T17:42:18;163.30;;;11.95;;
5630;SDS011;2837;50.990;7.124;2024-03-07T17:44:44;164.30;;;12.63;;
5630;SDS011;2837;50.990;7.124;2024-03-07T17:47:10;162.87;;;12.03;;
5630;SDS011;2837;50.990;7.124;2024-03-07T17:49:36;162.90;;;11.70;;
5630;SDS011;2837;50.990;7.124;2024-03-07T17:52:05;163.57;;;12.53;;
5630;SDS011;2837;50.990;7.124;2024-03-07T17:54:37;168.13;;;13.68;;
5630;SDS011;2837;50.990;7.124;2024-03-07T17:57:18;164.57;;;13.45;;
5630;SDS011;2837;50.990;7.124;2024-03-07T17:59:44;164.07;;;13.07;;
5630;SDS011;2837;50.990;7.124;2024-03-07T18:02:14;165.32;;;13.30;;
5630;SDS011;2837;50.990;7.124;2024-03-07T18:04:42;165.27;;;12.40;;
5630;SDS011;2837;50.990;7.124;2024-03-07T18:07:14;164.02;;;12.90;;
5630;SDS011;2837;50.990;7.124;2024-03-07T18:09:42;165.00;;;12.98;;
5630;SDS011;2837;50.990;7.124;2024-03-07T18:12:07;164.65;;;13.00;;
5630;SDS011;2837;50.990;7.124;2024-03-07T18:14:38;162.27;;;11.20;;
5630;SDS011;2837;50.990;7.124;2024-03-07T18:17:06;165.55;;;13.38;;
5630;SDS011;2837;50.990;7.124;2024-03-07T18:19:32;165.10;;;13.45;;
5630;SDS011;2837;50.990;7.124;2024-03-07T18:22:01;165.10;;;13.00;;
5630;SDS011;2837;50.990;7.124;2024-03-07T18:24:30;162.68;;;12.05;;
5630;SDS011;2837;50.990;7.124;2024-03-07T18:26:56;164.82;;;13.27;;
5630;SDS011;2837;50.990;7.124;2024-03-07T18:29:21;164.07;;;12.50;;
5630;SDS011;2837;50.990;7.124;2024-03-07T18:31:47;164.93;;;13.30;;
5630;SDS011;2837;50.990;7.124;2024-03-07T18:34:14;165.23;;;12.32;;
5630;SDS011;2837;50.990;7.124;2024-03-07T18:36:42;166.65;;;13.98;;
5630;SDS011;2837;50.990;7.124;2024-03-07T18:39:09;166.48;;;13.75;;
5630;SDS011;2837;50.990;7.124;2024-03-07T18:41:41;164.73;;;13.30;;
5630;SDS011;2837;50.990;7.124;2024-03-07T18:44:08;165.75;;;13.88;;
5630;SDS011;2837;50.990;7.124;2024-03-07T18:46:34;165.25;;;13.57;;
5630;SDS011;2837;50.990;7.124;2024-03-07T18:49:00;165.73;;;13.50;;
5630;SDS011;2837;50.990;7.124;2024-03-07T18:51:33;165.07;;;13.40;;
5630;SDS011;2837;50.990;7.124;2024-03-07T18:54:02;164.63;;;13.40;;
5630;SDS011;2837;50.990;7.124;2024-03-07T18:56:31;166.57;;;14.10;;
5630;SDS011;2837;50.990;7.124;2024-03-07T18:58:57;165.35;;;13.05;;
5630;SDS011;2837;50.990;7.124;2024-03-07T19:01:26;165.20;;;12.48;;
5630;SDS011;2837;50.990;7.124;2024-03-07T19:03:57;165.98;;;12.88;;
5630;SDS011;2837;50.990;7.124;2024-03-07T19:06:23;166.48;;;13.07;;
5630;SDS011;2837;50.990;7.124;2024-03-07T19:08:51;163.68;;;12.43;;
5630;SDS011;2837;50.990;7.124;2024-03-07T19:11:17;165.33;;;12.53;;
5630;SDS011;2837;50.990;7.124;2024-03-07T19:13:43;164.98;;;12.77;;
5630;SDS011;2837;50.990;7.124;2024-03-07T19:16:09;167.53;;;13.20;;
5630;SDS011;2837;50.990;7.124;2024-03-07T19:18:35;164.73;;;12.13;;
5630;SDS011;2837;50.990;7.124;2024-03-07T19:21:01;165.87;;;12.90;;
5630;SDS011;2837;50.990;7.124;2024-03-07T19:23:34;165.00;;;13.30;;
5630;SDS011;2837;50.990;7.124;2024-03-07T19:26:02;164.35;;;12.90;;
5630;SDS011;2837;50.990;7.124;2024-03-07T19:28:34;165.73;;;12.80;;
5630;SDS011;2837;50.990;7.124;2024-03-07T19:31:02;164.82;;;13.00;;
5630;SDS011;2837;50.990;7.124;2024-03-07T19:33:28;165.55;;;13.40;;
5630;SDS011;2837;50.990;7.124;2024-03-07T19:35:56;165.60;;;13.18;;
5630;SDS011;2837;50.990;7.124;2024-03-07T19:38:24;166.82;;;13.27;;
5630;SDS011;2837;50.990;7.124;2024-03-07T19:40:50;167.25;;;13.38;;
5630;SDS011;2837;50.990;7.124;2024-03-07T19:43:16;165.43;;;12.98;;
5630;SDS011;2837;50.990;7.124;2024-03-07T19:45:44;165.18;;;12.65;;
5630;SDS011;2837;50.990;7.124;2024-03-07T19:48:11;165.10;;;13.10;;
5630;SDS011;2837;50.990;7.124;2024-03-07T19:50:37;167.85;;;13.13;;
5630;SDS011;2837;50.990;7.124;2024-03-07T19:53:04;170.07;;;14.20;;
5630;SDS011;2837;50.990;7.124;2024-03-07T19:55:37;167.35;;;13.02;;
5630;SDS011;2837;50.990;7.124;2024-03-07T19:58:03;166.95;;;12.80;;
5630;SDS011;2837;50.990;7.124;2024-03-07T20:00:29;168.63;;;13.80;;
5630;SDS011;2837;50.990;7.124;2024-03-07T20:02:58;165.95;;;13.10;;
5630;SDS011;2837;50.990;7.124;2024-03-07T20:05:25;165.70;;;12.70;;
5630;SDS011;2837;50.990;7.124;2024-03-07T20:07:51;164.60;;;12.98;;
5630;SDS011;2837;50.990;7.124;2024-03-07T20:10:17;164.68;;;12.82;;
5630;SDS011;2837;50.990;7.124;2024-03-07T20:12:44;168.10;;;13.10;;
5630;SDS011;2837;50.990;7.124;2024-03-07T20:15:11;166.98;;;13.20;;
5630;SDS011;2837;50.990;7.124;2024-03-07T20:17:38;166.33;;;13.43;;
5630;SDS011;2837;50.990;7.124;2024-03-07T20:20:08;166.85;;;13.02;;
5630;SDS011;2837;50.990;7.124;2024-03-07T20:22:41;165.75;;;13.20;;
5630;SDS011;2837;50.990;7.124;2024-03-07T20:25:10;164.38;;;12.68;;
5630;SDS011;2837;50.990;7.124;2024-03-07T20:27:41;167.60;;;13.45;;
5630;SDS011;2837;50.990;7.124;2024-03-07T20:30:07;166.10;;;13.30;;
5630;SDS011;2837;50.990;7.124;2024-03-07T20:32:33;166.65;;;12.48;;
5630;SDS011;2837;50.990;7.124;2024-03-07T20:35:00;164.63;;;12.67;;
5630;SDS011;2837;50.990;7.124;2024-03-07T20:37:31;166.33;;;13.43;;
5630;SDS011;2837;50.990;7.124;2024-03-07T20:39:58;166.00;;;13.55;;
5630;SDS011;2837;50.990;7.124;2024-03-07T20:42:24;165.80;;;13.60;;
5630;SDS011;2837;50.990;7.124;2024-03-07T20:44:52;165.70;;;12.85;;
5630;SDS011;2837;50.990;7.124;2024-03-07T20:47:18;167.75;;;13.00;;
5630;SDS011;2837;50.990;7.124;2024-03-07T20:49:44;167.57;;;13.40;;
5630;SDS011;2837;50.990;7.124;2024-03-07T20:52:10;166.15;;;12.95;;
5630;SDS011;2837;50.990;7.124;2024-03-07T20:54:36;165.30;;;13.20;;
5630;SDS011;2837;50.990;7.124;2024-03-07T20:57:02;168.35;;;13.80;;
5630;SDS011;2837;50.990;7.124;2024-03-07T20:59:28;166.23;;;13.20;;
5630;SDS011;2837;50.990;7.124;2024-03-07T21:01:55;168.07;;;13.10;;
5630;SDS011;2837;50.990;7.124;2024-03-07T21:04:21;165.55;;;13.32;;
5630;SDS011;2837;50.990;7.124;2024-03-07T21:06:49;165.15;;;12.80;;